sensor_id;sensor_type;location;lat;lon;timestamp;pressure;altitude;pressure_sealevel;temperature;humidity
12182;BME280;6154;51.550;12.138;2022-09-12T00:00:31;100713.53;;;19.51;58.31
12182;BME280;6154;51.550;12.138;2022-09-12T00:02:59;100707.91;;;19.55;58.25
12182;BME280;6154;51.550;12.138;2022-09-12T00:05:27;100703.28;;;19.57;58.43
12182;BME280;6154;51.550;12.138;2022-09-12T00:07:56;100700.59;;;19.57;58.40
12182;BME280;6154;51.550;12.138;2022-09-12T00:10:24;100706.69;;;19.59;58.09
12182;BME280;6154;51.550;12.138;2022-09-12T00:12:52;100701.16;;;19.60;58.23
12182;BME280;6154;51.550;12.138;2022-09-12T00:15:20;100695.66;;;19.62;58.03
12182;BME280;6154;51.550;12.138;2022-09-12T00:17:50;100694.66;;;19.63;58.25
12182;BME280;6154;51.550;12.138;2022-09-12T00:20:18;100689.56;;;19.60;58.33
12182;BME280;6154;51.550;12.138;2022-09-12T00:22:46;100695.22;;;19.57;58.66
12182;BME280;6154;51.550;12.138;2022-09-12T00:25:14;100693.63;;;19.54;58.64
12182;BME280;6154;51.550;12.138;2022-09-12T00:27:42;100694.59;;;19.53;58.26
12182;BME280;6154;51.550;12.138;2022-09-12T00:30:10;100692.75;;;19.53;58.01
12182;BME280;6154;51.550;12.138;2022-09-12T00:32:39;100686.69;;;19.51;58.25
12182;BME280;6154;51.550;12.138;2022-09-12T00:35:08;100691.22;;;19.51;57.97
12182;BME280;6154;51.550;12.138;2022-09-12T00:37:36;100689.50;;;19.50;57.94
12182;BME280;6154;51.550;12.138;2022-09-12T00:40:05;100685.56;;;19.44;58.12
12182;BME280;6154;51.550;12.138;2022-09-12T00:42:33;100695.13;;;19.37;58.02
12182;BME280;6154;51.550;12.138;2022-09-12T00:45:01;100692.97;;;19.31;57.82
12182;BME280;6154;51.550;12.138;2022-09-12T00:47:31;100698.13;;;19.23;58.23
12182;BME280;6154;51.550;12.138;2022-09-12T00:50:04;100693.47;;;19.15;58.62
12182;BME280;6154;51.550;12.138;2022-09-12T00:52:39;100689.31;;;19.11;59.44
12182;BME280;6154;51.550;12.138;2022-09-12T00:55:11;100688.75;;;19.08;59.72
12182;BME280;6154;51.550;12.138;2022-09-12T00:57:44;100686.19;;;19.06;59.32
12182;BME280;6154;51.550;12.138;2022-09-12T01:00:18;100695.63;;;19.01;59.87
12182;BME280;6154;51.550;12.138;2022-09-12T01:02:49;100687.13;;;18.95;59.97
12182;BME280;6154;51.550;12.138;2022-09-12T01:05:19;100684.44;;;18.95;59.80
12182;BME280;6154;51.550;12.138;2022-09-12T01:07:50;100689.69;;;18.97;59.76
12182;BME280;6154;51.550;12.138;2022-09-12T01:10:19;100685.88;;;19.00;59.90
12182;BME280;6154;51.550;12.138;2022-09-12T01:12:47;100684.75;;;19.02;59.57
12182;BME280;6154;51.550;12.138;2022-09-12T01:15:15;100683.66;;;19.05;59.34
12182;BME280;6154;51.550;12.138;2022-09-12T01:18:00;100678.16;;;19.06;59.13
12182;BME280;6154;51.550;12.138;2022-09-12T01:20:43;100682.41;;;19.09;60.59
12182;BME280;6154;51.550;12.138;2022-09-12T01:23:44;100679.12;;;19.05;59.80
12182;BME280;6154;51.550;12.138;2022-09-12T01:26:41;100681.69;;;19.07;60.02
12182;BME280;6154;51.550;12.138;2022-09-12T01:29:31;100685.59;;;19.03;60.24
12182;BME280;6154;51.550;12.138;2022-09-12T01:32:08;100681.34;;;19.00;59.98
12182;BME280;6154;51.550;12.138;2022-09-12T01:34:45;100681.63;;;18.97;59.18
12182;BME280;6154;51.550;12.138;2022-09-12T01:37:24;100685.44;;;18.94;60.04
12182;BME280;6154;51.550;12.138;2022-09-12T01:40:00;100683.69;;;18.93;59.73
12182;BME280;6154;51.550;12.138;2022-09-12T01:42:32;100683.59;;;18.95;59.67
12182;BME280;6154;51.550;12.138;2022-09-12T01:45:07;100686.38;;;18.93;59.66
12182;BME280;6154;51.550;12.138;2022-09-12T01:47:40;100684.97;;;18.89;60.57
12182;BME280;6154;51.550;12.138;2022-09-12T01:50:14;100682.41;;;18.88;60.21
12182;BME280;6154;51.550;12.138;2022-09-12T01:52:48;100679.59;;;18.89;60.27
12182;BME280;6154;51.550;12.138;2022-09-12T01:55:20;100675.09;;;18.90;60.33
12182;BME280;6154;51.550;12.138;2022-09-12T01:57:53;100677.91;;;18.88;60.31
12182;BME280;6154;51.550;12.138;2022-09-12T02:00:23;100674.50;;;18.86;59.98
12182;BME280;6154;51.550;12.138;2022-09-12T02:02:56;100673.38;;;18.89;59.84
12182;BME280;6154;51.550;12.138;2022-09-12T02:05:30;100673.84;;;18.94;60.13
12182;BME280;6154;51.550;12.138;2022-09-12T02:08:04;100666.66;;;18.94;60.09
12182;BME280;6154;51.550;12.138;2022-09-12T02:10:39;100671.03;;;18.95;59.93
12182;BME280;6154;51.550;12.138;2022-09-12T02:13:13;100661.28;;;18.94;60.27
12182;BME280;6154;51.550;12.138;2022-09-12T02:15:47;100662.12;;;18.95;59.84
12182;BME280;6154;51.550;12.138;2022-09-12T02:18:19;100663.00;;;18.95;59.75
12182;BME280;6154;51.550;12.138;2022-09-12T02:20:48;100658.72;;;18.93;59.91
12182;BME280;6154;51.550;12.138;2022-09-12T02:23:20;100661.53;;;18.91;60.02
12182;BME280;6154;51.550;12.138;2022-09-12T02:25:51;100657.87;;;18.92;60.33
12182;BME280;6154;51.550;12.138;2022-09-12T02:28:24;100646.28;;;18.92;60.29
12182;BME280;6154;51.550;12.138;2022-09-12T02:31:00;100654.19;;;18.93;59.89
12182;BME280;6154;51.550;12.138;2022-09-12T02:33:37;100653.97;;;18.97;59.94
12182;BME280;6154;51.550;12.138;2022-09-12T02:36:13;100648.84;;;18.93;60.46
12182;BME280;6154;51.550;12.138;2022-09-12T02:38:48;100651.06;;;18.88;60.07
12182;BME280;6154;51.550;12.138;2022-09-12T02:41:18;100655.59;;;18.88;59.80
12182;BME280;6154;51.550;12.138;2022-09-12T02:43:48;100648.41;;;18.88;59.98
12182;BME280;6154;51.550;12.138;2022-09-12T02:46:20;100640.34;;;18.88;60.13
12182;BME280;6154;51.550;12.138;2022-09-12T02:48:50;100638.94;;;18.84;59.99
12182;BME280;6154;51.550;12.138;2022-09-12T02:51:19;100646.09;;;18.84;59.79
12182;BME280;6154;51.550;12.138;2022-09-12T02:53:50;100650.87;;;18.80;59.81
12182;BME280;6154;51.550;12.138;2022-09-12T02:56:22;100648.47;;;18.77;59.53
12182;BME280;6154;51.550;12.138;2022-09-12T02:58:53;100650.44;;;18.75;59.30
12182;BME280;6154;51.550;12.138;2022-09-12T03:01:46;100650.97;;;18.69;59.24
12182;BME280;6154;51.550;12.138;2022-09-12T03:04:36;100652.78;;;18.69;60.23
12182;BME280;6154;51.550;12.138;2022-09-12T03:07:13;100650.72;;;18.61;59.92
12182;BME280;6154;51.550;12.138;2022-09-12T03:09:46;100648.09;;;18.50;59.12
12182;BME280;6154;51.550;12.138;2022-09-12T03:12:26;100651.28;;;18.44;59.02
12182;BME280;6154;51.550;12.138;2022-09-12T03:15:08;100653.78;;;18.35;59.13
12182;BME280;6154;51.550;12.138;2022-09-12T03:17:47;100652.31;;;18.31;59.07
12182;BME280;6154;51.550;12.138;2022-09-12T03:20:29;100644.06;;;18.23;58.95
12182;BME280;6154;51.550;12.138;2022-09-12T03:23:03;100642.06;;;18.16;59.37
12182;BME280;6154;51.550;12.138;2022-09-12T03:25:35;100642.56;;;18.09;59.02
12182;BME280;6154;51.550;12.138;2022-09-12T03:28:07;100637.81;;;18.02;59.10
12182;BME280;6154;51.550;12.138;2022-09-12T03:30:38;100650.91;;;17.95;58.94
12182;BME280;6154;51.550;12.138;2022-09-12T03:33:10;100640.69;;;17.89;58.96
12182;BME280;6154;51.550;12.138;2022-09-12T03:35:40;100646.53;;;17.83;58.81
12182;BME280;6154;51.550;12.138;2022-09-12T03:38:08;100638.16;;;17.76;58.83
12182;BME280;6154;51.550;12.138;2022-09-12T03:40:37;100636.69;;;17.72;58.89
12182;BME280;6154;51.550;12.138;2022-09-12T03:43:06;100641.56;;;17.67;58.84
12182;BME280;6154;51.550;12.138;2022-09-12T03:45:35;100634.84;;;17.62;58.94
12182;BME280;6154;51.550;12.138;2022-09-12T03:48:04;100638.03;;;17.56;58.61
12182;BME280;6154;51.550;12.138;2022-09-12T03:50:33;100634.63;;;17.53;58.32
12182;BME280;6154;51.550;12.138;2022-09-12T03:53:02;100636.69;;;17.50;58.72
12182;BME280;6154;51.550;12.138;2022-09-12T03:55:30;100641.59;;;17.45;58.95
12182;BME280;6154;51.550;12.138;2022-09-12T03:57:59;100638.06;;;17.44;59.25
12182;BME280;6154;51.550;12.138;2022-09-12T04:00:27;100640.13;;;17.41;59.05
12182;BME280;6154;51.550;12.138;2022-09-12T04:02:55;100644.03;;;17.37;58.94
12182;BME280;6154;51.550;12.138;2022-09-12T04:05:24;100648.88;;;17.32;58.99
12182;BME280;6154;51.550;12.138;2022-09-12T04:07:52;100642.94;;;17.28;58.78
12182;BME280;6154;51.550;12.138;2022-09-12T04:10:22;100643.91;;;17.27;58.69
12182;BME280;6154;51.550;12.138;2022-09-12T04:12:49;100652.19;;;17.24;58.53
12182;BME280;6154;51.550;12.138;2022-09-12T04:15:17;100653.63;;;17.17;58.52
12182;BME280;6154;51.550;12.138;2022-09-12T04:17:46;100657.63;;;17.11;58.54
12182;BME280;6154;51.550;12.138;2022-09-12T04:20:14;100662.50;;;17.06;58.50
12182;BME280;6154;51.550;12.138;2022-09-12T04:22:42;100657.37;;;17.03;58.62
12182;BME280;6154;51.550;12.138;2022-09-12T04:25:10;100663.81;;;17.01;58.55
12182;BME280;6154;51.550;12.138;2022-09-12T04:27:40;100657.63;;;17.00;58.57
12182;BME280;6154;51.550;12.138;2022-09-12T04:30:09;100659.81;;;16.95;58.50
12182;BME280;6154;51.550;12.138;2022-09-12T04:32:38;100653.97;;;16.90;58.54
12182;BME280;6154;51.550;12.138;2022-09-12T04:35:07;100659.44;;;16.88;58.33
12182;BME280;6154;51.550;12.138;2022-09-12T04:37:37;100654.34;;;16.85;58.33
12182;BME280;6154;51.550;12.138;2022-09-12T04:40:05;100659.69;;;16.85;58.21
12182;BME280;6154;51.550;12.138;2022-09-12T04:42:34;100657.97;;;16.84;58.27
12182;BME280;6154;51.550;12.138;2022-09-12T04:45:04;100658.84;;;16.85;57.97
12182;BME280;6154;51.550;12.138;2022-09-12T04:47:33;100659.91;;;16.82;58.26
12182;BME280;6154;51.550;12.138;2022-09-12T04:50:01;100654.53;;;16.82;58.29
12182;BME280;6154;51.550;12.138;2022-09-12T04:52:30;100655.78;;;16.78;58.23
12182;BME280;6154;51.550;12.138;2022-09-12T04:54:58;100664.03;;;16.75;58.35
12182;BME280;6154;51.550;12.138;2022-09-12T04:57:26;100665.94;;;16.73;58.68
12182;BME280;6154;51.550;12.138;2022-09-12T04:59:54;100663.28;;;16.73;58.81
12182;BME280;6154;51.550;12.138;2022-09-12T05:02:23;100657.84;;;16.75;58.62
12182;BME280;6154;51.550;12.138;2022-09-12T05:04:51;100666.59;;;16.77;58.81
12182;BME280;6154;51.550;12.138;2022-09-12T05:07:20;100665.72;;;16.76;58.73
12182;BME280;6154;51.550;12.138;2022-09-12T05:09:47;100664.88;;;16.76;58.83
12182;BME280;6154;51.550;12.138;2022-09-12T05:12:15;100666.59;;;16.77;59.37
12182;BME280;6154;51.550;12.138;2022-09-12T05:14:44;100663.78;;;16.78;59.33
12182;BME280;6154;51.550;12.138;2022-09-12T05:17:12;100670.97;;;16.78;58.96
12182;BME280;6154;51.550;12.138;2022-09-12T05:19:41;100676.31;;;16.78;58.99
12182;BME280;6154;51.550;12.138;2022-09-12T05:22:10;100674.47;;;16.78;58.99
12182;BME280;6154;51.550;12.138;2022-09-12T05:24:38;100675.22;;;16.80;58.90
12182;BME280;6154;51.550;12.138;2022-09-12T05:27:15;100676.69;;;16.84;58.93
12182;BME280;6154;51.550;12.138;2022-09-12T05:29:43;100679.00;;;16.89;58.88
12182;BME280;6154;51.550;12.138;2022-09-12T05:32:11;100675.84;;;16.95;58.84
12182;BME280;6154;51.550;12.138;2022-09-12T05:34:39;100680.72;;;17.01;58.96
12182;BME280;6154;51.550;12.138;2022-09-12T05:37:08;100681.22;;;17.06;59.06
12182;BME280;6154;51.550;12.138;2022-09-12T05:39:36;100680.72;;;17.12;58.88
12182;BME280;6154;51.550;12.138;2022-09-12T05:42:05;100683.91;;;17.17;58.89
12182;BME280;6154;51.550;12.138;2022-09-12T05:44:32;100685.13;;;17.24;58.92
12182;BME280;6154;51.550;12.138;2022-09-12T05:47:00;100689.84;;;17.32;58.84
12182;BME280;6154;51.550;12.138;2022-09-12T05:49:28;100692.91;;;17.39;58.80
12182;BME280;6154;51.550;12.138;2022-09-12T05:51:56;100700.34;;;17.46;58.96
12182;BME280;6154;51.550;12.138;2022-09-12T05:54:26;100693.41;;;17.55;58.76
12182;BME280;6154;51.550;12.138;2022-09-12T05:56:57;100695.34;;;17.64;59.04
12182;BME280;6154;51.550;12.138;2022-09-12T05:59:25;100696.34;;;17.74;59.47
12182;BME280;6154;51.550;12.138;2022-09-12T06:01:54;100695.56;;;17.84;60.22
12182;BME280;6154;51.550;12.138;2022-09-12T06:04:22;100700.19;;;17.93;60.58
12182;BME280;6154;51.550;12.138;2022-09-12T06:06:51;100703.09;;;18.01;60.39
12182;BME280;6154;51.550;12.138;2022-09-12T06:09:19;100698.94;;;18.08;60.19
12182;BME280;6154;51.550;12.138;2022-09-12T06:11:48;100702.69;;;18.17;61.87
12182;BME280;6154;51.550;12.138;2022-09-12T06:14:17;100705.47;;;18.26;61.95
12182;BME280;6154;51.550;12.138;2022-09-12T06:16:45;100707.38;;;18.35;61.89
12182;BME280;6154;51.550;12.138;2022-09-12T06:19:16;100702.97;;;18.46;60.85
12182;BME280;6154;51.550;12.138;2022-09-12T06:21:45;100700.22;;;18.57;60.03
12182;BME280;6154;51.550;12.138;2022-09-12T06:24:15;100710.22;;;18.66;62.14
12182;BME280;6154;51.550;12.138;2022-09-12T06:26:43;100706.75;;;18.75;62.72
12182;BME280;6154;51.550;12.138;2022-09-12T06:29:14;100701.31;;;18.86;62.45
12182;BME280;6154;51.550;12.138;2022-09-12T06:31:42;100698.72;;;18.96;61.45
12182;BME280;6154;51.550;12.138;2022-09-12T06:34:12;100710.22;;;19.08;60.37
12182;BME280;6154;51.550;12.138;2022-09-12T06:36:41;100703.78;;;19.20;61.91
12182;BME280;6154;51.550;12.138;2022-09-12T06:39:11;100701.72;;;19.33;62.25
12182;BME280;6154;51.550;12.138;2022-09-12T06:41:40;100702.50;;;19.45;62.25
12182;BME280;6154;51.550;12.138;2022-09-12T06:44:12;100697.63;;;19.60;62.04
12182;BME280;6154;51.550;12.138;2022-09-12T06:46:43;100706.88;;;19.76;61.17
12182;BME280;6154;51.550;12.138;2022-09-12T06:49:12;100701.81;;;19.93;61.92
12182;BME280;6154;51.550;12.138;2022-09-12T06:51:40;100702.44;;;20.06;61.35
12182;BME280;6154;51.550;12.138;2022-09-12T06:54:11;100701.03;;;20.21;60.68
12182;BME280;6154;51.550;12.138;2022-09-12T06:56:39;100703.44;;;20.34;61.76
12182;BME280;6154;51.550;12.138;2022-09-12T06:59:07;100696.84;;;20.48;61.45
12182;BME280;6154;51.550;12.138;2022-09-12T07:01:35;100694.84;;;20.59;61.39
12182;BME280;6154;51.550;12.138;2022-09-12T07:04:05;100696.12;;;20.75;61.18
12182;BME280;6154;51.550;12.138;2022-09-12T07:06:35;100697.53;;;20.88;60.86
12182;BME280;6154;51.550;12.138;2022-09-12T07:09:05;100698.75;;;21.04;60.33
12182;BME280;6154;51.550;12.138;2022-09-12T07:11:36;100691.94;;;21.19;60.49
12182;BME280;6154;51.550;12.138;2022-09-12T07:14:06;100694.31;;;21.32;60.57
12182;BME280;6154;51.550;12.138;2022-09-12T07:16:35;100702.94;;;21.45;60.25
12182;BME280;6154;51.550;12.138;2022-09-12T07:19:06;100697.75;;;21.61;59.98
12182;BME280;6154;51.550;12.138;2022-09-12T07:21:35;100704.72;;;21.81;59.73
12182;BME280;6154;51.550;12.138;2022-09-12T07:24:06;100701.22;;;21.99;59.47
12182;BME280;6154;51.550;12.138;2022-09-12T07:26:37;100700.03;;;22.11;59.36
12182;BME280;6154;51.550;12.138;2022-09-12T07:29:06;100700.22;;;22.27;59.07
12182;BME280;6154;51.550;12.138;2022-09-12T07:31:55;100693.84;;;22.46;58.98
12182;BME280;6154;51.550;12.138;2022-09-12T07:34:24;100699.91;;;22.66;58.69
12182;BME280;6154;51.550;12.138;2022-09-12T07:36:52;100693.53;;;22.85;58.13
12182;BME280;6154;51.550;12.138;2022-09-12T07:39:20;100699.53;;;23.05;58.04
12182;BME280;6154;51.550;12.138;2022-09-12T07:41:48;100696.97;;;23.21;57.88
12182;BME280;6154;51.550;12.138;2022-09-12T07:44:16;100698.91;;;23.37;57.70
12182;BME280;6154;51.550;12.138;2022-09-12T07:46:44;100692.56;;;23.54;57.60
12182;BME280;6154;51.550;12.138;2022-09-12T07:49:12;100698.09;;;23.70;57.08
12182;BME280;6154;51.550;12.138;2022-09-12T07:51:41;100699.00;;;23.87;56.75
12182;BME280;6154;51.550;12.138;2022-09-12T07:54:09;100696.16;;;23.97;56.46
12182;BME280;6154;51.550;12.138;2022-09-12T07:56:37;100694.66;;;24.11;56.34
12182;BME280;6154;51.550;12.138;2022-09-12T07:59:06;100695.88;;;24.16;56.18
12182;BME280;6154;51.550;12.138;2022-09-12T08:01:34;100699.09;;;24.28;55.91
12182;BME280;6154;51.550;12.138;2022-09-12T08:04:03;100701.69;;;24.37;55.85
12182;BME280;6154;51.550;12.138;2022-09-12T08:06:32;100695.44;;;24.45;55.79
12182;BME280;6154;51.550;12.138;2022-09-12T08:09:03;100692.06;;;24.59;55.76
12182;BME280;6154;51.550;12.138;2022-09-12T08:11:32;100704.94;;;24.65;55.15
12182;BME280;6154;51.550;12.138;2022-09-12T08:14:00;100694.78;;;24.68;55.38
12182;BME280;6154;51.550;12.138;2022-09-12T08:16:30;100701.19;;;24.83;55.21
12182;BME280;6154;51.550;12.138;2022-09-12T08:18:59;100705.59;;;24.84;54.89
12182;BME280;6154;51.550;12.138;2022-09-12T08:21:29;100704.41;;;24.86;54.71
12182;BME280;6154;51.550;12.138;2022-09-12T08:23:59;100708.81;;;24.87;54.50
12182;BME280;6154;51.550;12.138;2022-09-12T08:26:29;100705.28;;;24.87;54.29
12182;BME280;6154;51.550;12.138;2022-09-12T08:28:58;100710.16;;;24.91;54.27
12182;BME280;6154;51.550;12.138;2022-09-12T08:31:27;100704.94;;;25.06;54.40
12182;BME280;6154;51.550;12.138;2022-09-12T08:33:56;100708.97;;;25.27;54.29
12182;BME280;6154;51.550;12.138;2022-09-12T08:36:26;100704.34;;;25.35;54.00
12182;BME280;6154;51.550;12.138;2022-09-12T08:38:57;100705.37;;;25.34;53.38
12182;BME280;6154;51.550;12.138;2022-09-12T08:41:30;100706.56;;;25.40;53.60
12182;BME280;6154;51.550;12.138;2022-09-12T08:44:17;100696.19;;;25.51;53.38
12182;BME280;6154;51.550;12.138;2022-09-12T08:46:58;100696.97;;;25.76;52.10
12182;BME280;6154;51.550;12.138;2022-09-12T08:49:32;100702.03;;;25.79;52.04
12182;BME280;6154;51.550;12.138;2022-09-12T08:52:04;100697.94;;;25.84;52.69
12182;BME280;6154;51.550;12.138;2022-09-12T08:54:34;100697.72;;;25.93;53.14
12182;BME280;6154;51.550;12.138;2022-09-12T08:57:04;100696.12;;;26.07;52.76
12182;BME280;6154;51.550;12.138;2022-09-12T08:59:36;100700.16;;;26.11;52.29
12182;BME280;6154;51.550;12.138;2022-09-12T09:02:19;100690.59;;;26.23;52.10
12182;BME280;6154;51.550;12.138;2022-09-12T09:04:51;100704.44;;;26.36;51.34
12182;BME280;6154;51.550;12.138;2022-09-12T09:07:32;100692.44;;;26.54;52.27
12182;BME280;6154;51.550;12.138;2022-09-12T09:10:14;100697.56;;;26.72;49.84
12182;BME280;6154;51.550;12.138;2022-09-12T09:12:52;100694.22;;;26.84;51.52
12182;BME280;6154;51.550;12.138;2022-09-12T09:15:36;100688.88;;;27.14;50.99
12182;BME280;6154;51.550;12.138;2022-09-12T09:18:11;100684.03;;;27.39;50.16
12182;BME280;6154;51.550;12.138;2022-09-12T09:20:46;100683.44;;;27.58;49.85
12182;BME280;6154;51.550;12.138;2022-09-12T09:23:21;100695.75;;;27.69;50.53
12182;BME280;6154;51.550;12.138;2022-09-12T09:25:53;100681.09;;;27.85;49.86
12182;BME280;6154;51.550;12.138;2022-09-12T09:28:29;100672.38;;;28.11;49.66
12182;BME280;6154;51.550;12.138;2022-09-12T09:30:59;100675.84;;;28.19;48.37
12182;BME280;6154;51.550;12.138;2022-09-12T09:33:32;100673.88;;;28.28;50.07
12182;BME280;6154;51.550;12.138;2022-09-12T09:36:07;100679.88;;;28.45;49.39
12182;BME280;6154;51.550;12.138;2022-09-12T09:38:47;100671.19;;;28.56;47.92
12182;BME280;6154;51.550;12.138;2022-09-12T09:41:24;100671.53;;;28.68;47.09
12182;BME280;6154;51.550;12.138;2022-09-12T09:43:59;100668.81;;;28.68;46.13
12182;BME280;6154;51.550;12.138;2022-09-12T09:46:28;100665.97;;;28.82;48.84
12182;BME280;6154;51.550;12.138;2022-09-12T09:48:59;100667.94;;;29.16;49.01
12182;BME280;6154;51.550;12.138;2022-09-12T09:51:33;100668.38;;;29.48;47.97
12182;BME280;6154;51.550;12.138;2022-09-12T09:54:04;100668.09;;;29.77;46.15
12182;BME280;6154;51.550;12.138;2022-09-12T09:56:39;100661.56;;;29.79;46.90
12182;BME280;6154;51.550;12.138;2022-09-12T09:59:11;100652.81;;;30.03;47.92
12182;BME280;6154;51.550;12.138;2022-09-12T10:01:45;100651.84;;;30.24;46.93
12182;BME280;6154;51.550;12.138;2022-09-12T10:04:18;100650.63;;;30.40;45.90
12182;BME280;6154;51.550;12.138;2022-09-12T10:06:50;100643.91;;;30.49;43.15
12182;BME280;6154;51.550;12.138;2022-09-12T10:09:22;100649.16;;;30.57;45.67
12182;BME280;6154;51.550;12.138;2022-09-12T10:11:51;100643.72;;;30.70;46.12
12182;BME280;6154;51.550;12.138;2022-09-12T10:14:36;100637.84;;;30.80;46.39
12182;BME280;6154;51.550;12.138;2022-09-12T10:17:26;100645.41;;;30.98;41.47
12182;BME280;6154;51.550;12.138;2022-09-12T10:20:00;100643.09;;;30.88;38.95
12182;BME280;6154;51.550;12.138;2022-09-12T10:22:47;100638.03;;;30.65;45.75
12182;BME280;6154;51.550;12.138;2022-09-12T10:25:17;100640.13;;;30.37;46.17
12182;BME280;6154;51.550;12.138;2022-09-12T10:27:52;100641.16;;;30.29;46.21
12182;BME280;6154;51.550;12.138;2022-09-12T10:30:23;100636.09;;;30.19;42.66
12182;BME280;6154;51.550;12.138;2022-09-12T10:32:58;100635.59;;;30.02;44.12
12182;BME280;6154;51.550;12.138;2022-09-12T10:35:42;100633.00;;;29.74;44.88
12182;BME280;6154;51.550;12.138;2022-09-12T10:38:16;100635.44;;;29.50;41.89
12182;BME280;6154;51.550;12.138;2022-09-12T10:40:44;100630.72;;;29.37;44.52
12182;BME280;6154;51.550;12.138;2022-09-12T10:43:17;100626.84;;;29.25;45.64
12182;BME280;6154;51.550;12.138;2022-09-12T10:45:55;100628.88;;;29.09;42.62
12182;BME280;6154;51.550;12.138;2022-09-12T10:48:28;100630.97;;;29.07;43.94
12182;BME280;6154;51.550;12.138;2022-09-12T10:50:58;100626.78;;;29.11;43.18
12182;BME280;6154;51.550;12.138;2022-09-12T10:53:27;100618.25;;;29.21;44.54
12182;BME280;6154;51.550;12.138;2022-09-12T10:56:04;100622.66;;;29.22;44.36
12182;BME280;6154;51.550;12.138;2022-09-12T10:59:07;100620.56;;;29.17;43.67
12182;BME280;6154;51.550;12.138;2022-09-12T11:01:48;100609.31;;;28.99;39.88
12182;BME280;6154;51.550;12.138;2022-09-12T11:04:25;100614.28;;;28.89;43.96
12182;BME280;6154;51.550;12.138;2022-09-12T11:07:18;100616.87;;;28.76;41.94
12182;BME280;6154;51.550;12.138;2022-09-12T11:09:54;100610.47;;;28.62;40.81
12182;BME280;6154;51.550;12.138;2022-09-12T11:12:34;100610.81;;;28.52;42.99
12182;BME280;6154;51.550;12.138;2022-09-12T11:15:27;100603.25;;;28.48;42.88
12182;BME280;6154;51.550;12.138;2022-09-12T11:18:09;100607.34;;;28.65;40.91
12182;BME280;6154;51.550;12.138;2022-09-12T11:20:52;100606.50;;;28.64;40.90
12182;BME280;6154;51.550;12.138;2022-09-12T11:26:55;100599.97;;;28.31;39.94
12182;BME280;6154;51.550;12.138;2022-09-12T11:29:36;100601.00;;;28.30;40.95
12182;BME280;6154;51.550;12.138;2022-09-12T11:35:21;100591.50;;;28.26;41.00
12182;BME280;6154;51.550;12.138;2022-09-12T11:38:07;100593.03;;;28.28;42.85
12182;BME280;6154;51.550;12.138;2022-09-12T11:40:43;100585.41;;;28.45;41.60
12182;BME280;6154;51.550;12.138;2022-09-12T11:43:21;100579.59;;;28.48;43.18
12182;BME280;6154;51.550;12.138;2022-09-12T11:45:51;100588.78;;;28.47;41.15
12182;BME280;6154;51.550;12.138;2022-09-12T11:48:36;100584.75;;;28.43;43.35
12182;BME280;6154;51.550;12.138;2022-09-12T11:51:16;100584.38;;;28.46;40.58
12182;BME280;6154;51.550;12.138;2022-09-12T11:53:52;100585.41;;;28.45;41.29
12182;BME280;6154;51.550;12.138;2022-09-12T11:56:24;100590.75;;;28.32;42.74
12182;BME280;6154;51.550;12.138;2022-09-12T11:58:57;100584.97;;;28.42;43.48
12182;BME280;6154;51.550;12.138;2022-09-12T12:01:28;100583.72;;;28.44;42.88
12182;BME280;6154;51.550;12.138;2022-09-12T12:04:09;100576.44;;;28.51;43.43
12182;BME280;6154;51.550;12.138;2022-09-12T12:06:47;100583.00;;;28.57;42.96
12182;BME280;6154;51.550;12.138;2022-09-12T12:09:18;100580.22;;;28.50;40.98
12182;BME280;6154;51.550;12.138;2022-09-12T12:11:48;100574.50;;;28.45;43.28
12182;BME280;6154;51.550;12.138;2022-09-12T12:14:21;100571.91;;;28.58;43.16
12182;BME280;6154;51.550;12.138;2022-09-12T12:16:51;100574.91;;;28.70;42.36
12182;BME280;6154;51.550;12.138;2022-09-12T12:19:33;100573.75;;;28.86;42.46
12182;BME280;6154;51.550;12.138;2022-09-12T12:22:07;100568.97;;;28.88;39.39
12182;BME280;6154;51.550;12.138;2022-09-12T12:24:53;100565.25;;;28.96;41.67
12182;BME280;6154;51.550;12.138;2022-09-12T12:27:23;100568.06;;;29.09;39.06
12182;BME280;6154;51.550;12.138;2022-09-12T12:29:52;100562.97;;;28.99;41.98
12182;BME280;6154;51.550;12.138;2022-09-12T12:32:24;100567.38;;;29.00;42.07
12182;BME280;6154;51.550;12.138;2022-09-12T12:37:59;100546.63;;;28.99;40.57
12182;BME280;6154;51.550;12.138;2022-09-12T12:40:29;100557.94;;;29.03;42.69
12182;BME280;6154;51.550;12.138;2022-09-12T12:43:00;100555.47;;;29.08;42.74
12182;BME280;6154;51.550;12.138;2022-09-12T12:45:57;100558.44;;;29.13;42.53
12182;BME280;6154;51.550;12.138;2022-09-12T12:48:29;100552.06;;;28.99;38.09
12182;BME280;6154;51.550;12.138;2022-09-12T12:51:37;100552.88;;;28.93;41.94
12182;BME280;6154;51.550;12.138;2022-09-12T12:54:33;100541.56;;;28.96;39.31
12182;BME280;6154;51.550;12.138;2022-09-12T12:57:05;100542.00;;;29.00;39.63
12182;BME280;6154;51.550;12.138;2022-09-12T12:59:46;100545.37;;;29.02;41.94
12182;BME280;6154;51.550;12.138;2022-09-12T13:02:19;100531.16;;;29.06;41.63
12182;BME280;6154;51.550;12.138;2022-09-12T13:04:48;100535.78;;;29.12;41.24
12182;BME280;6154;51.550;12.138;2022-09-12T13:07:25;100532.00;;;29.13;41.79
12182;BME280;6154;51.550;12.138;2022-09-12T13:09:55;100537.22;;;29.08;40.24
12182;BME280;6154;51.550;12.138;2022-09-12T13:12:26;100534.91;;;29.05;41.84
12182;BME280;6154;51.550;12.138;2022-09-12T13:14:57;100525.19;;;28.96;41.64
12182;BME280;6154;51.550;12.138;2022-09-12T13:17:32;100527.75;;;29.04;41.98
12182;BME280;6154;51.550;12.138;2022-09-12T13:20:05;100529.06;;;29.08;39.36
12182;BME280;6154;51.550;12.138;2022-09-12T13:22:56;100513.38;;;29.17;41.23
12182;BME280;6154;51.550;12.138;2022-09-12T13:25:28;100508.97;;;29.23;41.69
12182;BME280;6154;51.550;12.138;2022-09-12T13:27:59;100511.53;;;29.31;41.67